sensor_id;sensor_type;location;lat;lon;timestamp;P1;durP1;ratioP1;P2;durP2;ratioP2
7440;SDS011;29616;51.950;8.572;2023-10-09T00:01:30;539.60;;;225.65;;
7440;SDS011;29616;51.950;8.572;2023-10-09T00:04:01;536.60;;;222.80;;
7440;SDS011;29616;51.950;8.572;2023-10-09T00:06:39;530.13;;;220.70;;
7440;SDS011;29616;51.950;8.572;2023-10-09T00:09:09;537.33;;;222.25;;
7440;SDS011;29616;51.950;8.572;2023-10-09T00:11:48;532.42;;;221.18;;
7440;SDS011;29616;51.950;8.572;2023-10-09T00:14:25;512.67;;;216.38;;
7440;SDS011;29616;51.950;8.572;2023-10-09T00:17:00;519.72;;;216.57;;
7440;SDS011;29616;51.950;8.572;2023-10-09T00:19:49;518.40;;;214.98;;
7440;SDS011;29616;51.950;8.572;2023-10-09T00:22:21;511.83;;;212.77;;
7440;SDS011;29616;51.950;8.572;2023-10-09T00:24:57;528.30;;;220.82;;
7440;SDS011;29616;51.950;8.572;2023-10-09T00:27:50;523.65;;;215.32;;
7440;SDS011;29616;51.950;8.572;2023-10-09T00:30:21;536.15;;;221.45;;
7440;SDS011;29616;51.950;8.572;2023-10-09T00:32:58;539.35;;;222.60;;
7440;SDS011;29616;51.950;8.572;2023-10-09T00:35:37;534.40;;;221.80;;
7440;SDS011;29616;51.950;8.572;2023-10-09T00:38:22;537.28;;;221.65;;
7440;SDS011;29616;51.950;8.572;2023-10-09T00:41:02;537.92;;;222.30;;
7440;SDS011;29616;51.950;8.572;2023-10-09T00:43:38;533.55;;;221.77;;
7440;SDS011;29616;51.950;8.572;2023-10-09T00:46:12;528.92;;;220.30;;
7440;SDS011;29616;51.950;8.572;2023-10-09T00:48:53;553.25;;;228.35;;
7440;SDS011;29616;51.950;8.572;2023-10-09T00:51:25;545.55;;;223.45;;
7440;SDS011;29616;51.950;8.572;2023-10-09T00:54:02;582.33;;;239.25;;
7440;SDS011;29616;51.950;8.572;2023-10-09T00:56:43;557.47;;;229.38;;
7440;SDS011;29616;51.950;8.572;2023-10-09T00:59:26;564.55;;;233.93;;
7440;SDS011;29616;51.950;8.572;2023-10-09T01:02:00;645.85;;;262.77;;
7440;SDS011;29616;51.950;8.572;2023-10-09T01:04:35;692.67;;;278.83;;
7440;SDS011;29616;51.950;8.572;2023-10-09T01:07:08;679.47;;;271.48;;
7440;SDS011;29616;51.950;8.572;2023-10-09T01:09:42;571.28;;;233.23;;
7440;SDS011;29616;51.950;8.572;2023-10-09T01:12:14;633.47;;;257.85;;
7440;SDS011;29616;51.950;8.572;2023-10-09T01:14:46;604.53;;;247.63;;
7440;SDS011;29616;51.950;8.572;2023-10-09T01:17:22;560.80;;;229.52;;
7440;SDS011;29616;51.950;8.572;2023-10-09T01:20:04;541.67;;;222.10;;
7440;SDS011;29616;51.950;8.572;2023-10-09T01:22:45;483.05;;;201.13;;
7440;SDS011;29616;51.950;8.572;2023-10-09T01:25:18;480.42;;;198.23;;
7440;SDS011;29616;51.950;8.572;2023-10-09T01:27:50;476.92;;;197.00;;
7440;SDS011;29616;51.950;8.572;2023-10-09T01:30:21;509.42;;;209.15;;
7440;SDS011;29616;51.950;8.572;2023-10-09T01:32:52;508.63;;;209.50;;
7440;SDS011;29616;51.950;8.572;2023-10-09T01:35:24;486.63;;;200.30;;
7440;SDS011;29616;51.950;8.572;2023-10-09T01:37:55;489.58;;;201.10;;
7440;SDS011;29616;51.950;8.572;2023-10-09T01:40:31;489.77;;;199.45;;
7440;SDS011;29616;51.950;8.572;2023-10-09T01:43:05;482.92;;;195.02;;
7440;SDS011;29616;51.950;8.572;2023-10-09T01:45:38;495.17;;;199.68;;
7440;SDS011;29616;51.950;8.572;2023-10-09T01:48:13;501.33;;;203.00;;
7440;SDS011;29616;51.950;8.572;2023-10-09T01:50:52;474.83;;;190.00;;
7440;SDS011;29616;51.950;8.572;2023-10-09T01:53:21;472.80;;;190.20;;
7440;SDS011;29616;51.950;8.572;2023-10-09T01:56:01;515.92;;;209.43;;
7440;SDS011;29616;51.950;8.572;2023-10-09T01:58:44;490.08;;;200.52;;
7440;SDS011;29616;51.950;8.572;2023-10-09T02:01:15;501.83;;;204.18;;
7440;SDS011;29616;51.950;8.572;2023-10-09T02:03:49;503.05;;;204.13;;
7440;SDS011;29616;51.950;8.572;2023-10-09T02:06:22;592.75;;;236.75;;
7440;SDS011;29616;51.950;8.572;2023-10-09T02:09:01;560.13;;;224.30;;
7440;SDS011;29616;51.950;8.572;2023-10-09T02:11:34;579.70;;;233.02;;
7440;SDS011;29616;51.950;8.572;2023-10-09T02:14:13;553.13;;;223.55;;
7440;SDS011;29616;51.950;8.572;2023-10-09T02:16:48;572.90;;;230.00;;
7440;SDS011;29616;51.950;8.572;2023-10-09T02:19:32;526.47;;;212.02;;
7440;SDS011;29616;51.950;8.572;2023-10-09T02:22:02;546.30;;;220.05;;
7440;SDS011;29616;51.950;8.572;2023-10-09T02:24:40;574.90;;;228.57;;
7440;SDS011;29616;51.950;8.572;2023-10-09T02:27:21;587.00;;;231.75;;
7440;SDS011;29616;51.950;8.572;2023-10-09T02:30:15;524.00;;;209.18;;
7440;SDS011;29616;51.950;8.572;2023-10-09T02:32:57;557.63;;;223.95;;
7440;SDS011;29616;51.950;8.572;2023-10-09T02:35:35;553.50;;;221.02;;
7440;SDS011;29616;51.950;8.572;2023-10-09T02:38:05;537.33;;;213.32;;
7440;SDS011;29616;51.950;8.572;2023-10-09T02:40:38;475.02;;;189.90;;
7440;SDS011;29616;51.950;8.572;2023-10-09T02:43:32;528.45;;;212.65;;
7440;SDS011;29616;51.950;8.572;2023-10-09T02:46:11;528.00;;;211.30;;
7440;SDS011;29616;51.950;8.572;2023-10-09T02:48:44;537.00;;;215.18;;
7440;SDS011;29616;51.950;8.572;2023-10-09T02:51:19;549.97;;;218.05;;
7440;SDS011;29616;51.950;8.572;2023-10-09T02:54:00;563.78;;;223.68;;
7440;SDS011;29616;51.950;8.572;2023-10-09T02:56:47;552.08;;;222.85;;
7440;SDS011;29616;51.950;8.572;2023-10-09T02:59:24;569.75;;;226.63;;
7440;SDS011;29616;51.950;8.572;2023-10-09T03:01:55;578.72;;;227.93;;
7440;SDS011;29616;51.950;8.572;2023-10-09T03:04:27;533.65;;;212.68;;
7440;SDS011;29616;51.950;8.572;2023-10-09T03:06:57;598.33;;;235.77;;
7440;SDS011;29616;51.950;8.572;2023-10-09T03:09:29;595.55;;;236.52;;
7440;SDS011;29616;51.950;8.572;2023-10-09T03:12:00;523.92;;;208.15;;
7440;SDS011;29616;51.950;8.572;2023-10-09T03:14:37;506.60;;;201.15;;
7440;SDS011;29616;51.950;8.572;2023-10-09T03:17:08;498.65;;;198.90;;
7440;SDS011;29616;51.950;8.572;2023-10-09T03:19:39;486.55;;;194.50;;
7440;SDS011;29616;51.950;8.572;2023-10-09T03:22:11;484.23;;;192.38;;
7440;SDS011;29616;51.950;8.572;2023-10-09T03:24:43;505.52;;;198.45;;
7440;SDS011;29616;51.950;8.572;2023-10-09T03:27:18;552.58;;;218.77;;
7440;SDS011;29616;51.950;8.572;2023-10-09T03:29:48;533.22;;;211.43;;
7440;SDS011;29616;51.950;8.572;2023-10-09T03:32:22;595.88;;;235.75;;
7440;SDS011;29616;51.950;8.572;2023-10-09T03:34:53;547.95;;;214.30;;
7440;SDS011;29616;51.950;8.572;2023-10-09T03:37:22;588.22;;;233.02;;
7440;SDS011;29616;51.950;8.572;2023-10-09T03:40:02;535.50;;;213.07;;
7440;SDS011;29616;51.950;8.572;2023-10-09T03:42:35;566.20;;;223.15;;
7440;SDS011;29616;51.950;8.572;2023-10-09T03:45:11;538.65;;;213.18;;
7440;SDS011;29616;51.950;8.572;2023-10-09T03:47:53;534.97;;;214.02;;
7440;SDS011;29616;51.950;8.572;2023-10-09T03:50:32;536.45;;;213.15;;
7440;SDS011;29616;51.950;8.572;2023-10-09T03:53:04;535.05;;;211.70;;
7440;SDS011;29616;51.950;8.572;2023-10-09T03:55:42;556.45;;;220.93;;
7440;SDS011;29616;51.950;8.572;2023-10-09T03:58:11;592.33;;;235.52;;
7440;SDS011;29616;51.950;8.572;2023-10-09T04:00:44;591.13;;;234.43;;
7440;SDS011;29616;51.950;8.572;2023-10-09T04:03:16;598.30;;;238.15;;
7440;SDS011;29616;51.950;8.572;2023-10-09T04:05:47;571.30;;;226.27;;
7440;SDS011;29616;51.950;8.572;2023-10-09T04:08:20;573.35;;;227.88;;
7440;SDS011;29616;51.950;8.572;2023-10-09T04:10:57;529.08;;;210.45;;
7440;SDS011;29616;51.950;8.572;2023-10-09T04:13:33;524.58;;;209.40;;
7440;SDS011;29616;51.950;8.572;2023-10-09T04:16:04;489.00;;;195.07;;
7440;SDS011;29616;51.950;8.572;2023-10-09T04:18:49;508.00;;;202.43;;
7440;SDS011;29616;51.950;8.572;2023-10-09T04:21:19;506.70;;;200.98;;
7440;SDS011;29616;51.950;8.572;2023-10-09T04:23:58;526.00;;;206.82;;
7440;SDS011;29616;51.950;8.572;2023-10-09T04:26:45;593.08;;;231.05;;
7440;SDS011;29616;51.950;8.572;2023-10-09T04:29:16;574.45;;;229.68;;
7440;SDS011;29616;51.950;8.572;2023-10-09T04:34:22;558.55;;;223.02;;
7440;SDS011;29616;51.950;8.572;2023-10-09T04:37:01;582.72;;;232.30;;
7440;SDS011;29616;51.950;8.572;2023-10-09T04:39:52;603.58;;;237.80;;
7440;SDS011;29616;51.950;8.572;2023-10-09T04:42:40;550.33;;;217.48;;
7440;SDS011;29616;51.950;8.572;2023-10-09T04:45:25;520.42;;;206.05;;
7440;SDS011;29616;51.950;8.572;2023-10-09T04:48:12;565.22;;;222.30;;
7440;SDS011;29616;51.950;8.572;2023-10-09T04:51:00;579.65;;;223.98;;
7440;SDS011;29616;51.950;8.572;2023-10-09T04:53:48;572.95;;;228.02;;
7440;SDS011;29616;51.950;8.572;2023-10-09T04:56:23;623.58;;;238.32;;
7440;SDS011;29616;51.950;8.572;2023-10-09T04:58:53;601.58;;;231.40;;
7440;SDS011;29616;51.950;8.572;2023-10-09T05:01:32;530.33;;;211.00;;
7440;SDS011;29616;51.950;8.572;2023-10-09T05:04:11;528.63;;;207.52;;
7440;SDS011;29616;51.950;8.572;2023-10-09T05:07:04;510.73;;;200.60;;
7440;SDS011;29616;51.950;8.572;2023-10-09T05:09:48;573.47;;;225.15;;
7440;SDS011;29616;51.950;8.572;2023-10-09T05:12:32;570.80;;;222.57;;
7440;SDS011;29616;51.950;8.572;2023-10-09T05:15:00;545.65;;;216.95;;
7440;SDS011;29616;51.950;8.572;2023-10-09T05:17:36;536.60;;;215.02;;
7440;SDS011;29616;51.950;8.572;2023-10-09T05:20:09;583.95;;;227.00;;
7440;SDS011;29616;51.950;8.572;2023-10-09T05:22:57;552.60;;;216.07;;
7440;SDS011;29616;51.950;8.572;2023-10-09T05:25:44;535.95;;;212.07;;
7440;SDS011;29616;51.950;8.572;2023-10-09T05:28:23;527.45;;;204.88;;
7440;SDS011;29616;51.950;8.572;2023-10-09T05:31:15;582.60;;;227.57;;
7440;SDS011;29616;51.950;8.572;2023-10-09T05:34:00;492.50;;;190.27;;
7440;SDS011;29616;51.950;8.572;2023-10-09T05:36:35;512.75;;;199.75;;
7440;SDS011;29616;51.950;8.572;2023-10-09T05:39:04;520.15;;;203.02;;
7440;SDS011;29616;51.950;8.572;2023-10-09T05:41:49;517.08;;;197.05;;
7440;SDS011;29616;51.950;8.572;2023-10-09T05:44:21;501.90;;;196.27;;
7440;SDS011;29616;51.950;8.572;2023-10-09T05:47:09;498.27;;;195.38;;
7440;SDS011;29616;51.950;8.572;2023-10-09T05:49:53;494.13;;;194.73;;
7440;SDS011;29616;51.950;8.572;2023-10-09T05:52:46;479.15;;;188.68;;
7440;SDS011;29616;51.950;8.572;2023-10-09T05:55:35;506.08;;;197.48;;
7440;SDS011;29616;51.950;8.572;2023-10-09T05:58:39;511.33;;;200.40;;
7440;SDS011;29616;51.950;8.572;2023-10-09T06:01:41;484.52;;;190.25;;
7440;SDS011;29616;51.950;8.572;2023-10-09T06:04:29;500.05;;;198.77;;
7440;SDS011;29616;51.950;8.572;2023-10-09T06:07:17;519.63;;;204.43;;
7440;SDS011;29616;51.950;8.572;2023-10-09T06:10:11;586.45;;;226.68;;
7440;SDS011;29616;51.950;8.572;2023-10-09T06:12:46;627.92;;;242.00;;
7440;SDS011;29616;51.950;8.572;2023-10-09T06:15:35;528.83;;;207.82;;
7440;SDS011;29616;51.950;8.572;2023-10-09T06:18:47;540.83;;;213.93;;
7440;SDS011;29616;51.950;8.572;2023-10-09T06:21:37;631.95;;;246.35;;
7440;SDS011;29616;51.950;8.572;2023-10-09T06:24:22;555.55;;;215.68;;
7440;SDS011;29616;51.950;8.572;2023-10-09T06:27:03;570.03;;;223.00;;
7440;SDS011;29616;51.950;8.572;2023-10-09T06:29:50;645.42;;;250.95;;
7440;SDS011;29616;51.950;8.572;2023-10-09T06:32:41;618.95;;;243.20;;
7440;SDS011;29616;51.950;8.572;2023-10-09T06:35:19;585.38;;;227.35;;
7440;SDS011;29616;51.950;8.572;2023-10-09T06:37:51;524.28;;;207.20;;
7440;SDS011;29616;51.950;8.572;2023-10-09T06:40:49;484.20;;;186.10;;
7440;SDS011;29616;51.950;8.572;2023-10-09T06:43:54;478.92;;;187.52;;
7440;SDS011;29616;51.950;8.572;2023-10-09T06:46:35;460.63;;;178.52;;
7440;SDS011;29616;51.950;8.572;2023-10-09T06:49:21;448.00;;;173.50;;
7440;SDS011;29616;51.950;8.572;2023-10-09T06:52:04;444.50;;;170.20;;
7440;SDS011;29616;51.950;8.572;2023-10-09T06:55:04;467.08;;;179.63;;
7440;SDS011;29616;51.950;8.572;2023-10-09T06:57:47;503.70;;;195.75;;
7440;SDS011;29616;51.950;8.572;2023-10-09T07:00:22;550.83;;;216.93;;
7440;SDS011;29616;51.950;8.572;2023-10-09T07:03:26;555.38;;;216.00;;
7440;SDS011;29616;51.950;8.572;2023-10-09T07:06:03;522.42;;;203.63;;
7440;SDS011;29616;51.950;8.572;2023-10-09T07:08:38;582.60;;;228.32;;
7440;SDS011;29616;51.950;8.572;2023-10-09T07:11:25;544.38;;;212.25;;
7440;SDS011;29616;51.950;8.572;2023-10-09T07:14:14;612.58;;;237.63;;
7440;SDS011;29616;51.950;8.572;2023-10-09T07:17:23;604.05;;;235.13;;
7440;SDS011;29616;51.950;8.572;2023-10-09T07:20:12;604.15;;;237.52;;
7440;SDS011;29616;51.950;8.572;2023-10-09T07:22:44;625.78;;;244.75;;
7440;SDS011;29616;51.950;8.572;2023-10-09T07:25:24;641.97;;;250.40;;
7440;SDS011;29616;51.950;8.572;2023-10-09T07:28:09;674.15;;;260.50;;
7440;SDS011;29616;51.950;8.572;2023-10-09T07:31:04;668.70;;;258.20;;
7440;SDS011;29616;51.950;8.572;2023-10-09T07:33:41;584.40;;;231.02;;
7440;SDS011;29616;51.950;8.572;2023-10-09T07:36:25;637.90;;;249.95;;
7440;SDS011;29616;51.950;8.572;2023-10-09T07:39:03;652.45;;;255.82;;
7440;SDS011;29616;51.950;8.572;2023-10-09T07:41:45;623.55;;;247.25;;
7440;SDS011;29616;51.950;8.572;2023-10-09T07:44:31;604.33;;;236.85;;
7440;SDS011;29616;51.950;8.572;2023-10-09T07:47:09;586.35;;;232.13;;
7440;SDS011;29616;51.950;8.572;2023-10-09T07:49:48;584.55;;;230.57;;
7440;SDS011;29616;51.950;8.572;2023-10-09T07:52:26;555.85;;;220.32;;
7440;SDS011;29616;51.950;8.572;2023-10-09T07:54:57;536.75;;;214.05;;
7440;SDS011;29616;51.950;8.572;2023-10-09T07:57:32;536.10;;;212.98;;
7440;SDS011;29616;51.950;8.572;2023-10-09T08:00:06;591.30;;;232.00;;
7440;SDS011;29616;51.950;8.572;2023-10-09T08:02:56;572.70;;;226.88;;
7440;SDS011;29616;51.950;8.572;2023-10-09T08:05:30;572.92;;;226.55;;
7440;SDS011;29616;51.950;8.572;2023-10-09T08:08:09;550.80;;;218.70;;
7440;SDS011;29616;51.950;8.572;2023-10-09T08:11:06;558.45;;;222.68;;
7440;SDS011;29616;51.950;8.572;2023-10-09T08:13:55;549.70;;;217.90;;
7440;SDS011;29616;51.950;8.572;2023-10-09T08:16:30;528.42;;;209.50;;
7440;SDS011;29616;51.950;8.572;2023-10-09T08:19:05;502.58;;;202.70;;
7440;SDS011;29616;51.950;8.572;2023-10-09T08:22:03;482.40;;;192.00;;
7440;SDS011;29616;51.950;8.572;2023-10-09T08:25:04;496.77;;;196.07;;
7440;SDS011;29616;51.950;8.572;2023-10-09T08:27:35;506.38;;;200.85;;
7440;SDS011;29616;51.950;8.572;2023-10-09T08:30:22;491.83;;;197.57;;
7440;SDS011;29616;51.950;8.572;2023-10-09T08:33:08;504.38;;;202.80;;
7440;SDS011;29616;51.950;8.572;2023-10-09T08:35:59;496.75;;;197.52;;
7440;SDS011;29616;51.950;8.572;2023-10-09T08:38:34;496.80;;;200.02;;
7440;SDS011;29616;51.950;8.572;2023-10-09T08:41:09;530.17;;;210.98;;
7440;SDS011;29616;51.950;8.572;2023-10-09T08:43:48;546.67;;;215.48;;
7440;SDS011;29616;51.950;8.572;2023-10-09T08:46:19;547.50;;;216.90;;
7440;SDS011;29616;51.950;8.572;2023-10-09T08:48:55;524.78;;;209.05;;
7440;SDS011;29616;51.950;8.572;2023-10-09T08:51:28;521.72;;;205.32;;
7440;SDS011;29616;51.950;8.572;2023-10-09T08:54:04;621.15;;;241.52;;
7440;SDS011;29616;51.950;8.572;2023-10-09T08:56:40;604.85;;;237.45;;
7440;SDS011;29616;51.950;8.572;2023-10-09T08:59:17;622.13;;;242.90;;
7440;SDS011;29616;51.950;8.572;2023-10-09T09:01:51;600.92;;;234.60;;
7440;SDS011;29616;51.950;8.572;2023-10-09T09:04:34;623.03;;;242.10;;
7440;SDS011;29616;51.950;8.572;2023-10-09T09:07:06;586.85;;;230.43;;
7440;SDS011;29616;51.950;8.572;2023-10-09T09:09:56;713.00;;;269.70;;
7440;SDS011;29616;51.950;8.572;2023-10-09T09:12:33;651.83;;;250.30;;
7440;SDS011;29616;51.950;8.572;2023-10-09T09:15:10;638.70;;;245.35;;
7440;SDS011;29616;51.950;8.572;2023-10-09T09:17:48;629.20;;;242.07;;
7440;SDS011;29616;51.950;8.572;2023-10-09T09:20:19;543.08;;;211.60;;
7440;SDS011;29616;51.950;8.572;2023-10-09T09:22:55;537.72;;;210.23;;
7440;SDS011;29616;51.950;8.572;2023-10-09T09:25:40;551.22;;;213.05;;
7440;SDS011;29616;51.950;8.572;2023-10-09T09:28:12;570.25;;;221.68;;
7440;SDS011;29616;51.950;8.572;2023-10-09T09:30:49;541.90;;;209.73;;
7440;SDS011;29616;51.950;8.572;2023-10-09T09:33:20;520.40;;;205.23;;
7440;SDS011;29616;51.950;8.572;2023-10-09T09:35:59;541.13;;;210.10;;
7440;SDS011;29616;51.950;8.572;2023-10-09T09:38:36;545.10;;;212.25;;
7440;SDS011;29616;51.950;8.572;2023-10-09T09:41:19;561.28;;;216.90;;
7440;SDS011;29616;51.950;8.572;2023-10-09T09:43:52;572.20;;;219.93;;
7440;SDS011;29616;51.950;8.572;2023-10-09T09:46:25;537.55;;;211.27;;
7440;SDS011;29616;51.950;8.572;2023-10-09T09:49:02;587.75;;;225.60;;
7440;SDS011;29616;51.950;8.572;2023-10-09T09:51:45;590.35;;;228.65;;
7440;SDS011;29616;51.950;8.572;2023-10-09T09:54:17;628.80;;;239.50;;
7440;SDS011;29616;51.950;8.572;2023-10-09T09:56:53;548.78;;;212.65;;
7440;SDS011;29616;51.950;8.572;2023-10-09T09:59:27;563.60;;;218.45;;
7440;SDS011;29616;51.950;8.572;2023-10-09T10:04:36;541.30;;;212.65;;
7440;SDS011;29616;51.950;8.572;2023-10-09T10:07:12;530.45;;;206.88;;
7440;SDS011;29616;51.950;8.572;2023-10-09T10:09:44;551.38;;;212.38;;
7440;SDS011;29616;51.950;8.572;2023-10-09T10:12:48;539.78;;;209.90;;
7440;SDS011;29616;51.950;8.572;2023-10-09T10:18:31;552.47;;;212.55;;
7440;SDS011;29616;51.950;8.572;2023-10-09T10:21:12;552.67;;;215.20;;
7440;SDS011;29616;51.950;8.572;2023-10-09T10:23:45;549.55;;;211.73;;
7440;SDS011;29616;51.950;8.572;2023-10-09T10:26:16;545.50;;;211.82;;
7440;SDS011;29616;51.950;8.572;2023-10-09T10:31:56;580.05;;;220.38;;
7440;SDS011;29616;51.950;8.572;2023-10-09T10:34:51;577.15;;;221.80;;
7440;SDS011;29616;51.950;8.572;2023-10-09T10:37:35;578.20;;;220.55;;
7440;SDS011;29616;51.950;8.572;2023-10-09T10:40:13;589.40;;;224.95;;
7440;SDS011;29616;51.950;8.572;2023-10-09T10:43:06;624.90;;;235.75;;
7440;SDS011;29616;51.950;8.572;2023-10-09T10:48:40;571.45;;;216.75;;
7440;SDS011;29616;51.950;8.572;2023-10-09T10:51:14;654.17;;;244.63;;
7440;SDS011;29616;51.950;8.572;2023-10-09T10:53:51;599.75;;;226.68;;
7440;SDS011;29616;51.950;8.572;2023-10-09T10:56:26;562.88;;;215.20;;
7440;SDS011;29616;51.950;8.572;2023-10-09T10:59:04;532.72;;;205.18;;
7440;SDS011;29616;51.950;8.572;2023-10-09T11:01:51;561.20;;;213.50;;
7440;SDS011;29616;51.950;8.572;2023-10-09T11:04:22;550.55;;;212.00;;
7440;SDS011;29616;51.950;8.572;2023-10-09T11:07:09;546.22;;;209.43;;
7440;SDS011;29616;51.950;8.572;2023-10-09T11:09:44;547.28;;;211.55;;
7440;SDS011;29616;51.950;8.572;2023-10-09T11:12:42;608.13;;;235.35;;
7440;SDS011;29616;51.950;8.572;2023-10-09T11:15:35;609.53;;;232.80;;
7440;SDS011;29616;51.950;8.572;2023-10-09T11:18:15;626.63;;;242.40;;
7440;SDS011;29616;51.950;8.572;2023-10-09T11:20:48;633.20;;;239.25;;
7440;SDS011;29616;51.950;8.572;2023-10-09T11:23:38;623.88;;;239.55;;
7440;SDS011;29616;51.950;8.572;2023-10-09T11:26:21;604.45;;;235.98;;
7440;SDS011;29616;51.950;8.572;2023-10-09T11:29:06;625.72;;;241.65;;
7440;SDS011;29616;51.950;8.572;2023-10-09T11:31:59;634.60;;;245.07;;
7440;SDS011;29616;51.950;8.572;2023-10-09T11:34:32;667.13;;;257.02;;
7440;SDS011;29616;51.950;8.572;2023-10-09T11:37:12;720.40;;;268.35;;
7440;SDS011;29616;51.950;8.572;2023-10-09T11:39:43;688.65;;;264.88;;
7440;SDS011;29616;51.950;8.572;2023-10-09T11:42:26;803.53;;;295.17;;
7440;SDS011;29616;51.950;8.572;2023-10-09T11:45:19;738.85;;;283.33;;
7440;SDS011;29616;51.950;8.572;2023-10-09T11:47:52;679.60;;;259.92;;
7440;SDS011;29616;51.950;8.572;2023-10-09T11:50:43;737.50;;;279.38;;
7440;SDS011;29616;51.950;8.572;2023-10-09T11:53:19;739.08;;;284.17;;
7440;SDS011;29616;51.950;8.572;2023-10-09T11:56:01;757.88;;;284.05;;
7440;SDS011;29616;51.950;8.572;2023-10-09T11:58:31;752.97;;;285.48;;
7440;SDS011;29616;51.950;8.572;2023-10-09T12:01:10;663.38;;;252.32;;
7440;SDS011;29616;51.950;8.572;2023-10-09T12:03:47;684.47;;;263.90;;
7440;SDS011;29616;51.950;8.572;2023-10-09T12:06:22;707.13;;;271.45;;
7440;SDS011;29616;51.950;8.572;2023-10-09T12:08:51;695.00;;;267.23;;
7440;SDS011;29616;51.950;8.572;2023-10-09T12:11:20;744.28;;;285.42;;
7440;SDS011;29616;51.950;8.572;2023-10-09T12:13:58;754.20;;;292.95;;
7440;SDS011;29616;51.950;8.572;2023-10-09T12:16:27;753.35;;;286.05;;
7440;SDS011;29616;51.950;8.572;2023-10-09T12:19:01;725.72;;;275.58;;
7440;SDS011;29616;51.950;8.572;2023-10-09T12:21:38;731.42;;;276.10;;
7440;SDS011;29616;51.950;8.572;2023-10-09T12:24:12;454.40;;;176.60;;
7440;SDS011;29616;51.950;8.572;2023-10-09T12:26:47;466.52;;;182.82;;
7440;SDS011;29616;51.950;8.572;2023-10-09T12:29:22;428.95;;;169.18;;
7440;SDS011;29616;51.950;8.572;2023-10-09T12:31:58;473.48;;;187.80;;
7440;SDS011;29616;51.950;8.572;2023-10-09T12:34:30;519.78;;;203.15;;
7440;SDS011;29616;51.950;8.572;2023-10-09T12:37:04;477.92;;;189.43;;
7440;SDS011;29616;51.950;8.572;2023-10-09T12:39:34;479.88;;;188.88;;
7440;SDS011;29616;51.950;8.572;2023-10-09T12:42:07;455.15;;;179.68;;
7440;SDS011;29616;51.950;8.572;2023-10-09T12:44:38;385.60;;;154.82;;
7440;SDS011;29616;51.950;8.572;2023-10-09T12:47:08;364.60;;;151.55;;
7440;SDS011;29616;51.950;8.572;2023-10-09T12:49:39;367.33;;;152.48;;
7440;SDS011;29616;51.950;8.572;2023-10-09T12:52:11;359.30;;;147.80;;
7440;SDS011;29616;51.950;8.572;2023-10-09T12:54:43;461.48;;;182.80;;
7440;SDS011;29616;51.950;8.572;2023-10-09T12:57:14;391.92;;;160.00;;
7440;SDS011;29616;51.950;8.572;2023-10-09T12:59:47;374.50;;;152.57;;
7440;SDS011;29616;51.950;8.572;2023-10-09T13:02:18;444.88;;;179.63;;
7440;SDS011;29616;51.950;8.572;2023-10-09T13:04:57;426.80;;;171.00;;
7440;SDS011;29616;51.950;8.572;2023-10-09T13:07:32;426.00;;;168.20;;
7440;SDS011;29616;51.950;8.572;2023-10-09T13:10:03;405.02;;;160.27;;
7440;SDS011;29616;51.950;8.572;2023-10-09T13:12:39;377.05;;;150.95;;
7440;SDS011;29616;51.950;8.572;2023-10-09T13:15:09;341.55;;;143.45;;
7440;SDS011;29616;51.950;8.572;2023-10-09T13:17:39;339.70;;;139.90;;
7440;SDS011;29616;51.950;8.572;2023-10-09T13:20:10;344.73;;;142.48;;
7440;SDS011;29616;51.950;8.572;2023-10-09T13:22:43;312.92;;;135.65;;
7440;SDS011;29616;51.950;8.572;2023-10-09T13:25:14;291.30;;;131.13;;
7440;SDS011;29616;51.950;8.572;2023-10-09T13:27:48;353.05;;;146.05;;
7440;SDS011;29616;51.950;8.572;2023-10-09T13:30:19;379.45;;;152.23;;
7440;SDS011;29616;51.950;8.572;2023-10-09T13:32:51;303.02;;;132.07;;
7440;SDS011;29616;51.950;8.572;2023-10-09T13:35:21;291.85;;;131.13;;
7440;SDS011;29616;51.950;8.572;2023-10-09T13:38:05;398.52;;;159.65;;
7440;SDS011;29616;51.950;8.572;2023-10-09T13:40:38;393.33;;;156.63;;
7440;SDS011;29616;51.950;8.572;2023-10-09T13:43:08;394.80;;;156.95;;
7440;SDS011;29616;51.950;8.572;2023-10-09T13:45:44;373.42;;;150.10;;
7440;SDS011;29616;51.950;8.572;2023-10-09T13:48:18;407.13;;;158.23;;
7440;SDS011;29616;51.950;8.572;2023-10-09T13:50:51;389.50;;;156.15;;
7440;SDS011;29616;51.950;8.572;2023-10-09T13:53:33;405.35;;;158.18;;
7440;SDS011;29616;51.950;8.572;2023-10-09T13:56:04;396.13;;;158.20;;
7440;SDS011;29616;51.950;8.572;2023-10-09T13:58:42;290.20;;;130.20;;
7440;SDS011;29616;51.950;8.572;2023-10-09T14:01:17;306.33;;;131.80;;
7440;SDS011;29616;51.950;8.572;2023-10-09T14:03:56;298.80;;;131.38;;
7440;SDS011;29616;51.950;8.572;2023-10-09T14:06:27;317.48;;;135.68;;
7440;SDS011;29616;51.950;8.572;2023-10-09T14:09:06;368.42;;;148.68;;
7440;SDS011;29616;51.950;8.572;2023-10-09T14:11:38;398.50;;;157.20;;
7440;SDS011;29616;51.950;8.572;2023-10-09T14:14:11;381.63;;;152.60;;
7440;SDS011;29616;51.950;8.572;2023-10-09T14:16:44;353.23;;;145.63;;
7440;SDS011;29616;51.950;8.572;2023-10-09T14:19:15;383.70;;;153.35;;
7440;SDS011;29616;51.950;8.572;2023-10-09T14:21:47;340.70;;;141.38;;
7440;SDS011;29616;51.950;8.572;2023-10-09T14:24:20;376.25;;;151.50;;
7440;SDS011;29616;51.950;8.572;2023-10-09T14:27:01;263.00;;;121.65;;
7440;SDS011;29616;51.950;8.572;2023-10-09T14:29:33;232.10;;;112.45;;
7440;SDS011;29616;51.950;8.572;2023-10-09T14:32:04;248.70;;;115.50;;
7440;SDS011;29616;51.950;8.572;2023-10-09T14:34:35;201.55;;;101.07;;
7440;SDS011;29616;51.950;8.572;2023-10-09T14:37:06;201.52;;;102.05;;
7440;SDS011;29616;51.950;8.572;2023-10-09T14:39:42;258.20;;;117.55;;
7440;SDS011;29616;51.950;8.572;2023-10-09T14:42:15;250.50;;;115.22;;
7440;SDS011;29616;51.950;8.572;2023-10-09T14:44:48;241.23;;;113.20;;
7440;SDS011;29616;51.950;8.572;2023-10-09T14:47:19;254.38;;;118.35;;
7440;SDS011;29616;51.950;8.572;2023-10-09T14:49:49;241.70;;;113.28;;
7440;SDS011;29616;51.950;8.572;2023-10-09T14:52:22;253.63;;;118.40;;
7440;SDS011;29616;51.950;8.572;2023-10-09T14:54:57;304.30;;;132.00;;
7440;SDS011;29616;51.950;8.572;2023-10-09T14:57:28;262.83;;;119.70;;
7440;SDS011;29616;51.950;8.572;2023-10-09T15:00:00;346.70;;;141.75;;
7440;SDS011;29616;51.950;8.572;2023-10-09T15:02:41;301.05;;;129.70;;
7440;SDS011;29616;51.950;8.572;2023-10-09T15:05:11;365.88;;;146.80;;
7440;SDS011;29616;51.950;8.572;2023-10-09T15:07:42;348.75;;;144.65;;
7440;SDS011;29616;51.950;8.572;2023-10-09T15:10:14;290.00;;;127.78;;
7440;SDS011;29616;51.950;8.572;2023-10-09T15:12:47;345.27;;;141.30;;
7440;SDS011;29616;51.950;8.572;2023-10-09T15:15:18;345.13;;;142.90;;
7440;SDS011;29616;51.950;8.572;2023-10-09T15:17:53;288.95;;;126.85;;
7440;SDS011;29616;51.950;8.572;2023-10-09T15:20:24;286.55;;;125.57;;
7440;SDS011;29616;51.950;8.572;2023-10-09T15:22:54;387.38;;;156.32;;
7440;SDS011;29616;51.950;8.572;2023-10-09T15:25:26;409.80;;;159.43;;